Time,TemperatureF,DewpointF,PressureIn,WindDirection,WindDirectionDegrees,WindSpeedMPH,WindSpeedGustMPH,Humidity,HourlyPrecipIn,Conditions,Clouds,dailyrainin,SolarRadiationWatts/m^2,SoftwareType,DateUTC
2013-01-21 00:13:00,17.0,16.0,-100.00,East,99,1.0,2.0,94,-99.99,,,0.00,0.000000,,2013-01-21 08:13:00,
2013-01-21 01:12:00,16.0,15.0,-100.00,ENE,76,4.0,5.0,93,-99.99,,,-99.99,0.000000,,2013-01-21 09:12:00,
2013-01-21 02:12:00,16.0,14.0,-100.00,ESE,111,2.0,3.0,91,-99.99,,,-99.99,0.000000,,2013-01-21 10:12:00,
2013-01-21 03:12:00,16.0,14.0,-100.00,East,86,1.0,2.0,90,-99.99,,,0.00,0.000000,,2013-01-21 11:12:00,
2013-01-21 04:12:00,19.0,17.0,-100.00,NNE,22,2.0,4.0,92,-99.99,,,-99.99,0.000000,,2013-01-21 12:12:00,
2013-01-21 05:12:00,19.0,17.0,-100.00,North,355,2.0,4.0,92,-99.99,,,0.00,0.000000,,2013-01-21 13:12:00,
2013-01-21 06:12:00,19.0,18.0,-100.00,East,81,1.0,3.0,92,-99.99,,,0.00,0.000000,,2013-01-21 14:12:00,
2013-01-21 07:13:00,18.0,16.0,-100.00,ENE,61,0.0,2.0,91,-99.99,,,0.00,0.000000,,2013-01-21 15:13:00,
2013-01-21 08:12:00,18.0,16.0,-100.00,East,97,2.0,3.0,91,-99.99,,,0.00,0.120000,,2013-01-21 16:12:00,
2013-01-21 09:12:00,15.0,13.0,-100.00,NNE,20,1.0,2.0,89,-99.99,,,0.00,27.889999,,2013-01-21 17:12:00,
2013-01-21 10:12:00,16.0,14.0,-100.00,SSE,167,1.0,2.0,90,-99.99,,,0.00,109.709999,,2013-01-21 18:12:00,
2013-01-21 12:12:00,20.0,18.0,-100.00,NE,47,2.0,4.0,91,-99.99,,,0.00,340.179993,,2013-01-21 20:12:00,
2013-01-21 13:12:00,22.0,21.0,-100.00,NNE,32,4.0,6.0,92,-99.99,,,0.00,329.250000,,2013-01-21 21:12:00,
2013-01-21 14:12:00,25.0,23.0,-100.00,North,4,5.0,7.0,93,-99.99,,,0.00,451.630005,,2013-01-21 22:12:00,
2013-01-21 15:12:00,28.0,26.0,-100.00,NNE,13,5.0,7.0,94,-99.99,,,0.00,377.709991,,2013-01-21 23:12:00,
2013-01-21 16:12:00,26.0,24.0,-100.00,ENE,74,6.0,8.0,94,-99.99,,,0.00,262.420013,,2013-01-22 00:12:00,
2013-01-21 17:12:00,26.0,25.0,-100.00,NNW,337,6.0,8.0,93,-99.99,,,0.00,103.669998,,2013-01-22 01:12:00,
2013-01-21 18:12:00,24.0,23.0,-100.00,SE,126,2.0,4.0,94,-99.99,,,0.00,1.630000,,2013-01-22 02:12:00,
2013-01-21 19:12:00,22.0,21.0,-100.00,ENE,63,2.0,3.0,93,-99.99,,,0.00,0.000000,,2013-01-22 03:12:00,
2013-01-21 20:12:00,21.0,19.0,-100.00,ENE,65,2.0,3.0,92,-99.99,,,0.00,0.000000,,2013-01-22 04:12:00,
2013-01-21 21:12:00,19.0,17.0,-100.00,ESE,112,4.0,5.0,92,-99.99,,,0.00,0.000000,,2013-01-22 05:12:00,
2013-01-21 22:12:00,19.0,17.0,-100.00,ENE,71,2.0,3.0,92,-99.99,,,0.00,0.000000,,2013-01-22 06:12:00,
2013-01-21 23:12:00,18.0,16.0,-100.00,ENE,65,4.0,6.0,91,-99.99,,,0.00,0.000000,,2013-01-22 07:12:00,